Time;durP1;ratioP1;P1;durP2;ratioP2;P2;SDS_P1;SDS_P2;PMS_P1;PMS_P2;Temp;Humidity;BMP_temperature;BMP_pressure;BME280_temperature;BME280_humidity;BME280_pressure;Samples;Min_cycle;Max_cycle;Signal;HPM_P1;HPM_P2
2022/04/01 00:00:28;;;;;;;4.93;1.60;;;0.80;99.90;;;;;;5012958;28;20060;-74
2022/04/01 00:02:54;;;;;;;4.50;2.00;;;0.80;99.90;;;;;;4996096;28;20115;-74
2022/04/01 00:05:19;;;;;;;1.13;1.13;;;0.80;99.90;;;;;;4996330;28;20041;-74
2022/04/01 00:07:45;;;;;;;1.40;1.30;;;0.80;99.90;;;;;;5011995;28;20061;-74
2022/04/01 00:10:11;;;;;;;2.58;1.73;;;0.80;99.90;;;;;;5012475;28;20044;-74
2022/04/01 00:12:45;;;;;;;5.15;2.30;;;0.80;99.90;;;;;;5012401;28;20103;-74
2022/04/01 00:15:12;;;;;;;2.17;1.33;;;0.80;99.90;;;;;;4996595;28;20073;-73
2022/04/01 00:17:42;;;;;;;3.17;1.70;;;0.90;99.90;;;;;;5012256;28;20477;-74
2022/04/01 00:20:09;;;;;;;1.27;1.17;;;1.00;99.90;;;;;;5012508;28;20613;-74
2022/04/01 00:22:35;;;;;;;2.30;1.88;;;1.00;99.90;;;;;;5012324;28;20502;-73
2022/04/01 00:25:00;;;;;;;4.80;1.60;;;1.00;99.90;;;;;;5005672;28;20096;-74
2022/04/01 00:27:26;;;;;;;0.90;0.85;;;0.90;99.90;;;;;;4985538;28;20516;-74
2022/04/01 00:29:52;;;;;;;1.17;1.08;;;0.90;99.90;;;;;;4996025;28;20416;-74
2022/04/01 00:32:18;;;;;;;3.53;1.70;;;0.90;99.90;;;;;;5012042;28;20160;-74
2022/04/01 00:34:45;;;;;;;1.27;1.15;;;0.90;99.90;;;;;;5011081;28;20524;-73
2022/04/01 00:37:12;;;;;;;3.85;2.28;;;0.90;99.90;;;;;;5011199;28;20452;-74
2022/04/01 00:39:38;;;;;;;1.58;1.20;;;0.90;99.90;;;;;;4995815;28;20124;-74
2022/04/01 00:42:04;;;;;;;4.47;2.10;;;0.90;99.90;;;;;;5012113;28;20491;-74
2022/04/01 00:44:35;;;;;;;2.83;1.60;;;1.00;99.90;;;;;;5011632;28;20580;-74
2022/04/01 00:47:08;;;;;;;1.35;1.25;;;1.00;99.90;;;;;;5008757;28;20176;-74
2022/04/01 00:49:34;;;;;;;1.30;1.20;;;1.00;99.90;;;;;;5002758;28;20116;-74
2022/04/01 00:52:03;;;;;;;1.52;1.42;;;0.90;99.90;;;;;;5012010;28;20156;-74
2022/04/01 00:54:28;;;;;;;1.75;1.52;;;0.90;99.90;;;;;;4987102;28;20045;-74
2022/04/01 00:56:55;;;;;;;1.50;1.40;;;0.90;99.90;;;;;;4995564;28;20564;-74
2022/04/01 00:59:22;;;;;;;4.72;1.90;;;0.90;99.90;;;;;;4995578;28;20037;-74
2022/04/01 01:01:49;;;;;;;0.60;0.60;;;0.80;99.90;;;;;;5011626;28;20045;-75
2022/04/01 01:04:16;;;;;;;1.45;1.38;;;0.80;99.90;;;;;;4995227;28;20091;-75
2022/04/01 01:06:44;;;;;;;2.17;1.40;;;0.80;99.90;;;;;;5011355;28;20421;-75
2022/04/01 01:09:11;;;;;;;1.17;1.17;;;0.80;99.90;;;;;;5028343;28;20049;-75
2022/04/01 01:11:37;;;;;;;1.55;1.27;;;0.80;99.90;;;;;;5011504;28;20045;-74
2022/04/01 01:14:04;;;;;;;3.90;1.65;;;0.80;99.90;;;;;;4995409;28;20144;-75
2022/04/01 01:16:31;;;;;;;0.95;0.88;;;0.80;99.90;;;;;;4995935;28;20073;-75
2022/04/01 01:19:07;;;;;;;0.80;0.80;;;0.80;99.90;;;;;;4988209;28;20037;-75
2022/04/01 01:21:34;;;;;;;1.88;1.23;;;0.80;99.90;;;;;;4994397;28;20037;-75
2022/04/01 01:24:03;;;;;;;4.15;1.50;;;0.80;99.90;;;;;;5010564;28;20051;-75
2022/04/01 01:26:30;;;;;;;1.00;1.00;;;0.70;99.90;;;;;;5010592;28;20115;-75
2022/04/01 01:28:57;;;;;;;2.70;1.00;;;0.70;99.90;;;;;;5026574;28;20052;-75
2022/04/01 01:31:24;;;;;;;3.80;1.58;;;0.80;99.90;;;;;;4991370;28;20046;-75
2022/04/01 01:33:50;;;;;;;1.20;1.13;;;0.80;99.90;;;;;;4991795;28;20658;-74
2022/04/01 01:36:16;;;;;;;0.88;0.88;;;0.90;99.90;;;;;;5000354;28;20041;-74
2022/04/01 01:38:42;;;;;;;2.88;1.52;;;0.90;99.90;;;;;;5011983;28;20052;-74
2022/04/01 01:41:08;;;;;;;1.67;0.93;;;1.00;99.90;;;;;;5008751;28;20041;-74
2022/04/01 01:43:34;;;;;;;1.25;1.15;;;1.00;99.90;;;;;;5026299;28;20049;-74
2022/04/01 01:45:59;;;;;;;5.07;1.60;;;1.00;99.90;;;;;;4991934;28;20042;-75
2022/04/01 01:48:25;;;;;;;1.38;1.27;;;1.00;99.90;;;;;;5009526;28;20049;-74
2022/04/01 01:56:18;;;;;;;0.60;0.60;;;1.00;99.90;;;;;;5007748;28;20056;-75
2022/04/01 01:58:44;;;;;;;1.30;1.20;;;1.10;99.90;;;;;;5006085;28;20506;-74
2022/04/01 02:01:11;;;;;;;2.15;1.50;;;1.00;99.90;;;;;;5010550;28;20052;-74
2022/04/01 02:03:37;;;;;;;1.38;1.27;;;1.10;99.90;;;;;;5008085;28;20460;-75
2022/04/01 02:06:03;;;;;;;0.98;0.98;;;1.10;99.90;;;;;;5005635;28;20049;-75
2022/04/01 02:08:32;;;;;;;5.95;2.20;;;1.10;99.90;;;;;;5010523;28;20053;-75
2022/04/01 02:10:58;;;;;;;3.55;1.50;;;1.20;99.90;;;;;;5010911;28;20049;-75
2022/04/01 02:13:26;;;;;;;1.17;1.10;;;1.20;99.90;;;;;;4993497;28;20037;-75
2022/04/01 02:15:51;;;;;;;1.80;1.70;;;1.20;99.90;;;;;;5010640;28;20041;-75
2022/04/01 02:18:17;;;;;;;1.58;1.40;;;1.20;99.90;;;;;;5009930;28;20029;-76
2022/04/01 02:20:43;;;;;;;1.45;1.30;;;1.20;99.90;;;;;;5010849;28;20045;-75
2022/04/01 02:23:09;;;;;;;0.63;0.63;;;1.20;99.90;;;;;;5008898;28;20068;-75
2022/04/01 02:25:36;;;;;;;1.42;1.33;;;1.20;99.90;;;;;;5007552;28;20534;-74
2022/04/01 02:28:02;;;;;;;2.85;1.85;;;1.30;99.90;;;;;;4989481;28;20152;-74
2022/04/01 02:30:28;;;;;;;1.65;1.45;;;1.30;99.90;;;;;;5010244;28;20124;-74
2022/04/01 02:32:54;;;;;;;2.45;1.45;;;1.40;99.90;;;;;;4991777;28;20117;-75
2022/04/01 02:35:20;;;;;;;3.20;1.33;;;1.40;99.90;;;;;;4991897;28;20033;-75
2022/04/01 02:37:47;;;;;;;0.90;0.90;;;1.40;99.90;;;;;;5038524;28;20068;-74
2022/04/01 02:40:13;;;;;;;2.85;1.80;;;1.40;99.90;;;;;;5010809;28;20049;-75
2022/04/01 02:42:39;;;;;;;1.65;1.55;;;1.40;99.90;;;;;;5009776;28;20092;-75
2022/04/01 02:45:05;;;;;;;8.90;1.77;;;1.40;99.90;;;;;;5010725;28;20041;-74
2022/04/01 02:47:31;;;;;;;4.60;1.30;;;1.30;99.90;;;;;;4991204;28;20401;-75
2022/04/01 02:49:57;;;;;;;1.42;1.33;;;1.30;99.90;;;;;;5019963;28;20533;-75
2022/04/01 02:52:22;;;;;;;2.30;1.13;;;1.30;99.90;;;;;;4993954;28;20065;-74
2022/04/01 02:54:48;;;;;;;6.43;0.70;;;1.30;99.90;;;;;;4994721;28;20057;-75
2022/04/01 02:57:14;;;;;;;4.43;1.40;;;1.40;99.90;;;;;;5012112;28;20486;-75
2022/04/01 02:59:39;;;;;;;1.05;1.05;;;1.30;99.90;;;;;;4997805;28;20141;-75
2022/04/01 03:02:05;;;;;;;1.10;1.10;;;1.40;99.90;;;;;;4998516;28;20140;-75
2022/04/01 03:04:30;;;;;;;1.27;1.00;;;1.40;99.90;;;;;;5014039;28;20087;-75
2022/04/01 03:06:56;;;;;;;0.95;0.93;;;1.30;99.90;;;;;;5013846;28;20049;-75
2022/04/01 03:09:22;;;;;;;3.10;1.20;;;1.40;99.90;;;;;;4998004;28;20457;-75
2022/04/01 03:11:48;;;;;;;7.43;1.48;;;1.40;99.90;;;;;;5013647;28;20128;-75
2022/04/01 03:14:13;;;;;;;1.05;0.98;;;1.40;99.90;;;;;;5011997;28;20042;-75
2022/04/01 03:16:39;;;;;;;1.17;1.13;;;1.40;99.90;;;;;;4998162;28;20374;-75
2022/04/01 03:19:10;;;;;;;3.65;1.42;;;1.40;99.90;;;;;;4997194;28;20041;-75
2022/04/01 03:21:38;;;;;;;5.05;2.17;;;1.40;99.90;;;;;;5013772;28;20441;-75
2022/04/01 03:24:04;;;;;;;0.93;0.88;;;1.30;99.90;;;;;;4998133;28;20041;-75
2022/04/01 03:26:29;;;;;;;1.48;1.20;;;1.40;99.90;;;;;;5013526;28;20061;-75
2022/04/01 03:28:55;;;;;;;1.85;1.17;;;1.40;99.90;;;;;;5013714;28;20060;-75
2022/04/01 03:31:21;;;;;;;2.20;1.60;;;1.40;99.90;;;;;;4990690;28;20041;-74
2022/04/01 03:33:47;;;;;;;3.17;1.50;;;1.40;99.90;;;;;;4996905;28;20045;-75
2022/04/01 03:36:13;;;;;;;5.45;1.60;;;1.40;99.90;;;;;;4997170;28;20053;-75
2022/04/01 03:38:39;;;;;;;1.02;1.02;;;1.40;99.90;;;;;;4996518;28;20052;-75
2022/04/01 03:41:06;;;;;;;2.17;1.15;;;1.40;99.90;;;;;;4997289;28;20107;-75
2022/04/01 03:43:36;;;;;;;1.90;1.48;;;1.40;99.90;;;;;;5013318;28;20574;-75
2022/04/01 03:46:08;;;;;;;0.63;0.63;;;1.40;99.90;;;;;;5010079;28;20034;-75
2022/04/01 03:49:01;;;;;;;10.15;1.67;;;1.40;99.90;;;;;;4990688;28;20499;-75
2022/04/01 03:51:28;;;;;;;;;;;1.40;99.90;;;;;;5013057;28;20038;-75
2022/04/01 03:53:58;;;;;;;5.78;1.67;;;1.50;99.90;;;;;;5013338;28;19967;-75
2022/04/01 03:56:31;;;;;;;2.38;1.02;;;1.50;99.90;;;;;;5009612;28;20529;-75
2022/04/01 03:59:09;;;;;;;0.65;0.65;;;1.40;99.90;;;;;;4985426;28;20033;-75
2022/04/01 04:01:35;;;;;;;6.25;1.17;;;1.50;99.90;;;;;;5012965;28;20045;-75
2022/04/01 04:04:03;;;;;;;5.07;1.73;;;1.50;99.90;;;;;;5012600;28;20045;-75
2022/04/01 04:06:28;;;;;;;1.40;1.30;;;1.50;99.90;;;;;;4995452;28;20068;-76
2022/04/01 04:08:57;;;;;;;3.17;1.60;;;1.60;99.90;;;;;;5011858;28;20050;-75
2022/04/01 04:11:27;;;;;;;2.78;1.50;;;1.60;99.90;;;;;;4996582;28;20120;-75
2022/04/01 04:13:55;;;;;;;4.35;1.63;;;1.60;99.90;;;;;;4996463;28;20041;-75
2022/04/01 04:16:29;;;;;;;2.03;1.10;;;1.60;99.90;;;;;;5012672;28;20033;-75
2022/04/01 04:19:10;;;;;;;1.92;1.27;;;1.60;99.90;;;;;;5012219;28;20042;-75
2022/04/01 04:21:46;;;;;;;0.80;0.80;;;1.60;99.90;;;;;;4993113;28;20410;-75
2022/04/01 04:24:24;;;;;;;0.93;0.93;;;1.60;99.90;;;;;;5001934;28;20375;-75
2022/04/01 04:26:51;;;;;;;2.67;1.85;;;1.60;99.90;;;;;;5010865;28;20044;-76
2022/04/01 04:29:18;;;;;;;2.05;0.98;;;1.60;99.90;;;;;;5012428;28;20513;-75
2022/04/01 04:32:00;;;;;;;4.03;1.23;;;1.70;99.90;;;;;;5012407;28;20056;-75
2022/04/01 04:34:31;;;;;;;3.70;1.90;;;1.70;99.90;;;;;;5011365;28;20051;-75
2022/04/01 04:36:57;;;;;;;3.60;1.23;;;1.70;99.90;;;;;;4996016;28;20047;-74
2022/04/01 04:39:32;;;;;;;2.33;1.67;;;1.80;99.90;;;;;;5012064;28;20033;-75
2022/04/01 04:41:58;;;;;;;2.42;1.30;;;1.80;99.90;;;;;;5010995;28;20068;-75
2022/04/01 04:44:30;;;;;;;2.75;1.38;;;1.80;99.90;;;;;;4996022;28;20124;-74
2022/04/01 04:47:01;;;;;;;4.65;1.17;;;1.80;99.90;;;;;;5011657;28;20088;-74
2022/04/01 04:49:28;;;;;;;0.75;0.75;;;1.80;99.90;;;;;;5012198;28;20048;-75
2022/04/01 04:51:56;;;;;;;3.95;1.80;;;1.80;99.90;;;;;;4995507;28;20098;-74
2022/04/01 04:54:24;;;;;;;4.07;1.60;;;1.80;99.90;;;;;;5012131;28;20397;-74
2022/04/01 04:56:50;;;;;;;1.60;1.33;;;1.90;99.90;;;;;;5011873;28;20041;-74
2022/04/01 04:59:20;;;;;;;1.77;1.67;;;1.90;99.90;;;;;;5008625;28;20053;-74
2022/04/01 05:01:57;;;;;;;5.63;1.77;;;1.80;99.90;;;;;;5007426;28;20452;-74
2022/04/01 05:04:29;;;;;;;5.50;1.77;;;1.90;99.90;;;;;;5005269;28;20060;-74
2022/04/01 05:07:26;;;;;;;4.45;1.48;;;1.90;99.90;;;;;;5011537;28;20045;-74
2022/04/01 05:10:02;;;;;;;1.95;1.13;;;1.90;99.90;;;;;;4995210;28;20488;-74
2022/04/01 05:12:51;;;;;;;0.70;0.70;;;1.90;99.90;;;;;;5011488;28;20080;-75
2022/04/01 05:15:23;;;;;;;4.22;1.55;;;1.90;99.90;;;;;;5011529;28;20524;-74
2022/04/01 05:18:01;;;;;;;3.22;1.83;;;1.90;99.90;;;;;;4991704;28;20110;-75
2022/04/01 05:20:28;;;;;;;2.05;1.23;;;1.90;99.90;;;;;;5023676;28;20114;-75
2022/04/01 05:23:09;;;;;;;3.92;1.90;;;2.00;99.90;;;;;;4993944;28;20049;-74
2022/04/01 05:26:00;;;;;;;1.83;1.50;;;1.80;99.90;;;;;;4993389;28;20092;-74
2022/04/01 05:28:30;;;;;;;3.97;1.13;;;1.90;99.90;;;;;;5010215;28;20045;-74
2022/04/01 05:31:04;;;;;;;1.58;1.27;;;1.90;99.90;;;;;;5009982;28;20131;-74
2022/04/01 05:33:51;;;;;;;1.77;0.95;;;2.00;99.90;;;;;;5009839;28;20091;-74
2022/04/01 05:36:17;;;;;;;1.20;1.13;;;2.00;99.90;;;;;;4994281;28;20123;-74
2022/04/01 05:38:43;;;;;;;3.38;1.15;;;2.00;99.90;;;;;;5010594;28;20053;-74
2022/04/01 05:41:10;;;;;;;2.35;1.35;;;2.10;99.90;;;;;;5009671;28;20523;-75
2022/04/01 05:43:38;;;;;;;2.53;1.35;;;2.00;99.90;;;;;;5010076;28;20129;-73
2022/04/01 05:46:04;;;;;;;2.47;1.40;;;2.00;99.90;;;;;;5010717;28;20060;-74
2022/04/01 05:48:31;;;;;;;2.72;1.13;;;2.00;99.90;;;;;;4994232;28;20049;-74
2022/04/01 05:50:57;;;;;;;0.80;0.80;;;2.10;99.90;;;;;;4990476;28;20038;-75
2022/04/01 05:53:25;;;;;;;2.35;1.02;;;2.00;99.90;;;;;;5022428;28;20469;-75
2022/04/01 05:55:51;;;;;;;2.28;1.10;;;2.10;99.90;;;;;;4991972;28;20041;-74
2022/04/01 05:58:17;;;;;;;2.22;1.35;;;2.10;99.90;;;;;;4993282;28;20046;-74
2022/04/01 06:00:59;;;;;;;5.47;1.85;;;2.20;99.90;;;;;;4991355;28;20068;-74
2022/04/01 06:03:37;;;;;;;2.00;1.30;;;2.20;99.90;;;;;;5003095;28;20048;-74
2022/04/01 06:06:09;;;;;;;4.22;1.65;;;2.20;99.90;;;;;;5004170;28;20046;-74
2022/04/01 06:09:03;;;;;;;2.03;1.33;;;2.20;99.90;;;;;;5005942;28;20069;-75
2022/04/01 06:11:50;;;;;;;2.03;1.23;;;2.20;99.90;;;;;;5002156;28;20413;-74
2022/04/01 06:14:34;;;;;;;4.25;1.60;;;2.20;99.90;;;;;;5017969;28;20046;-75
2022/04/01 06:17:15;;;;;;;1.83;1.45;;;2.20;99.90;;;;;;5009330;28;20037;-74
2022/04/01 06:19:44;;;;;;;0.98;0.88;;;2.20;99.90;;;;;;4992380;28;20037;-75
2022/04/01 06:22:20;;;;;;;3.97;1.20;;;2.20;99.90;;;;;;5009721;28;20041;-74
2022/04/01 06:25:16;;;;;;;0.73;0.73;;;2.10;99.90;;;;;;4972531;28;1051926;-74
2022/04/01 06:27:46;;;;;;;0.95;0.95;;;2.10;99.90;;;;;;4994236;28;20303;-74
2022/04/01 06:30:17;;;;;;;0.75;0.75;;;2.20;99.90;;;;;;4987657;28;20041;-75
2022/04/01 06:32:55;;;;;;;3.03;1.77;;;2.20;99.90;;;;;;5012362;28;20077;-74
2022/04/01 06:35:35;;;;;;;1.08;1.08;;;2.20;99.90;;;;;;5002533;28;20041;-75
2022/04/01 06:38:06;;;;;;;4.00;1.20;;;2.20;99.90;;;;;;5014357;28;20393;-75
2022/04/01 06:40:50;;;;;;;1.42;1.25;;;2.30;99.90;;;;;;5012063;28;20496;-75
2022/04/01 06:43:17;;;;;;;2.85;1.60;;;2.40;99.90;;;;;;5012510;28;20460;-74
2022/04/01 06:45:43;;;;;;;1.08;1.08;;;2.40;99.90;;;;;;5011950;28;20486;-74
2022/04/01 06:48:08;;;;;;;1.20;1.10;;;2.40;99.90;;;;;;4982237;28;20050;-74
2022/04/01 06:50:34;;;;;;;1.50;1.40;;;2.50;99.90;;;;;;4988631;28;20043;-74
2022/04/01 06:53:00;;;;;;;2.97;1.30;;;2.50;99.90;;;;;;5017766;28;20498;-75
2022/04/01 06:55:26;;;;;;;3.40;1.58;;;2.50;99.90;;;;;;5008033;28;20441;-74
2022/04/01 06:57:52;;;;;;;1.40;1.20;;;2.50;99.90;;;;;;5022143;28;20080;-74
2022/04/01 07:00:19;;;;;;;2.63;1.50;;;2.60;99.90;;;;;;5004601;28;20375;-75
2022/04/01 07:02:46;;;;;;;1.63;1.38;;;2.60;99.90;;;;;;4989517;28;20465;-74
2022/04/01 07:05:12;;;;;;;1.67;1.30;;;2.70;99.90;;;;;;5012410;28;20053;-74
2022/04/01 07:07:41;;;;;;;2.20;1.50;;;2.70;99.90;;;;;;4984816;28;20502;-75
2022/04/01 07:10:09;;;;;;;0.80;0.80;;;2.70;99.90;;;;;;5010121;28;20042;-75
2022/04/01 07:12:35;;;;;;;0.93;0.93;;;2.70;99.90;;;;;;4996134;28;20191;-75
2022/04/01 07:15:01;;;;;;;2.47;1.23;;;2.80;99.90;;;;;;5005887;28;20038;-74
2022/04/01 07:17:27;;;;;;;1.40;1.30;;;2.80;99.90;;;;;;4989492;28;20041;-74
2022/04/01 07:19:53;;;;;;;3.53;1.38;;;2.90;99.90;;;;;;4994566;28;20555;-74
2022/04/01 07:22:19;;;;;;;2.38;1.00;;;2.90;99.90;;;;;;5013337;28;20497;-75
2022/04/01 07:24:44;;;;;;;2.90;1.20;;;2.90;99.90;;;;;;5006196;28;20068;-73
2022/04/01 07:27:11;;;;;;;4.63;1.45;;;2.80;99.90;;;;;;5004617;28;20041;-74
2022/04/01 07:29:37;;;;;;;3.13;1.50;;;2.80;99.90;;;;;;5010603;28;20088;-74
2022/04/01 07:34:50;;;;;;;1.05;0.98;;;2.90;99.90;;;;;;5009854;28;20041;-73
2022/04/01 07:37:21;;;;;;;1.88;1.50;;;2.90;99.90;;;;;;5005421;28;20120;-74
2022/04/01 07:39:48;;;;;;;4.75;1.40;;;2.90;99.90;;;;;;5008840;28;20069;-73
2022/04/01 07:42:14;;;;;;;1.10;1.08;;;3.00;99.90;;;;;;4994373;28;20477;-73
2022/04/01 07:44:39;;;;;;;6.63;1.67;;;3.00;99.90;;;;;;4995900;28;20175;-73
2022/04/01 07:47:09;;;;;;;3.85;1.77;;;3.00;99.90;;;;;;4992831;28;20409;-74
2022/04/01 07:49:37;;;;;;;2.47;1.30;;;3.00;99.90;;;;;;5011475;28;20040;-74
2022/04/01 07:52:04;;;;;;;5.90;2.13;;;2.90;99.90;;;;;;4995335;28;20045;-74
2022/04/01 07:54:30;;;;;;;1.13;1.02;;;3.00;99.90;;;;;;5002986;28;20045;-74
2022/04/01 07:56:55;;;;;;;2.80;1.27;;;2.90;99.90;;;;;;5007512;28;20160;-73
2022/04/01 07:59:23;;;;;;;3.22;1.60;;;2.80;99.90;;;;;;5012839;28;20049;-73
2022/04/01 08:01:49;;;;;;;4.07;1.90;;;2.90;99.90;;;;;;5010321;28;20051;-74
2022/04/01 08:04:15;;;;;;;1.65;1.55;;;2.80;99.90;;;;;;4995285;28;20037;-73
2022/04/01 08:06:40;;;;;;;2.00;1.60;;;2.80;99.90;;;;;;4996601;28;20118;-73
2022/04/01 08:09:06;;;;;;;2.55;1.63;;;2.80;99.90;;;;;;4995560;28;20041;-74
2022/04/01 08:11:32;;;;;;;0.75;0.75;;;2.80;99.90;;;;;;5025458;28;20498;-75
2022/04/01 08:13:57;;;;;;;2.00;1.52;;;2.70;99.90;;;;;;5004499;28;20053;-74
2022/04/01 08:16:23;;;;;;;3.72;1.98;;;2.70;99.90;;;;;;5008808;28;20366;-74
2022/04/01 08:18:49;;;;;;;0.90;0.90;;;2.70;99.90;;;;;;5026620;28;20041;-74
2022/04/01 08:21:15;;;;;;;2.67;1.52;;;2.60;99.90;;;;;;4994225;28;20048;-75
2022/04/01 08:23:41;;;;;;;4.03;1.58;;;2.70;99.90;;;;;;5004274;28;20054;-74
2022/04/01 08:26:07;;;;;;;1.83;1.65;;;2.70;99.90;;;;;;5006969;28;20116;-74
2022/04/01 08:28:33;;;;;;;7.97;1.70;;;2.60;99.90;;;;;;5008107;28;20033;-74
2022/04/01 08:30:59;;;;;;;3.97;2.28;;;2.60;99.90;;;;;;5009009;28;20049;-74
2022/04/01 08:33:26;;;;;;;3.35;1.70;;;2.70;99.90;;;;;;4992820;28;20060;-74
2022/04/01 08:35:52;;;;;;;1.23;1.20;;;2.60;99.90;;;;;;5001472;28;20045;-73
2022/04/01 08:38:17;;;;;;;1.25;1.25;;;2.60;99.90;;;;;;4993095;28;20041;-74
2022/04/01 08:40:43;;;;;;;4.15;1.95;;;2.60;99.90;;;;;;5010115;28;20041;-74
2022/04/01 08:43:09;;;;;;;2.22;2.00;;;2.80;99.90;;;;;;4987460;28;20049;-73
2022/04/01 08:45:37;;;;;;;2.30;1.80;;;2.90;99.90;;;;;;5002430;28;20068;-73
2022/04/01 08:48:10;;;;;;;4.05;1.63;;;3.00;99.90;;;;;;5010936;28;20111;-73
2022/04/01 08:50:36;;;;;;;5.90;1.75;;;3.20;99.90;;;;;;5008624;28;20501;-73
2022/04/01 08:53:03;;;;;;;4.10;2.17;;;3.20;99.90;;;;;;5008672;28;20025;-72
2022/04/01 08:55:29;;;;;;;6.45;2.00;;;3.20;99.90;;;;;;4993295;28;20103;-72
2022/04/01 08:57:55;;;;;;;1.52;1.42;;;3.20;99.90;;;;;;5001177;28;20061;-72
2022/04/01 09:00:20;;;;;;;3.75;1.40;;;3.20;99.90;;;;;;5008435;28;20437;-72
2022/04/01 09:02:59;;;;;;;2.55;1.20;;;3.20;99.90;;;;;;5004307;28;20037;-73
2022/04/01 09:05:25;;;;;;;1.27;1.13;;;3.30;99.90;;;;;;5005582;28;20055;-72
2022/04/01 09:08:04;;;;;;;1.98;1.70;;;3.30;99.90;;;;;;4991554;28;20480;-72
2022/04/01 09:10:48;;;;;;;3.60;1.33;;;3.40;99.90;;;;;;4993875;28;20033;-73
2022/04/01 09:13:13;;;;;;;;;;;3.40;99.90;;;;;;5022686;28;20045;-73
2022/04/01 09:15:41;;;;;;;2.50;1.70;;;3.40;99.90;;;;;;5003723;28;19925;-72
2022/04/01 09:18:06;;;;;;;1.25;1.10;;;3.50;99.90;;;;;;5011059;28;20041;-71
2022/04/01 09:20:48;;;;;;;3.50;1.90;;;3.50;99.90;;;;;;4992953;28;20029;-72
2022/04/01 09:23:24;;;;;;;2.50;1.92;;;3.50;99.90;;;;;;5010473;28;20045;-71
2022/04/01 09:25:51;;;;;;;3.13;1.48;;;3.60;99.90;;;;;;5002266;28;20068;-71
2022/04/01 09:28:27;;;;;;;1.33;1.23;;;3.60;99.90;;;;;;5002943;28;20050;-71
2022/04/01 09:31:13;;;;;;;1.70;1.60;;;3.50;99.90;;;;;;5009598;28;20091;-71
2022/04/01 09:33:52;;;;;;;2.22;1.75;;;3.60;99.90;;;;;;5022938;28;20041;-71
2022/04/01 09:36:19;;;;;;;2.08;1.83;;;3.60;99.90;;;;;;5007655;28;20091;-71
2022/04/01 09:38:58;;;;;;;2.05;1.63;;;3.60;99.90;;;;;;5009589;28;20128;-71
2022/04/01 09:41:42;;;;;;;1.30;1.17;;;3.70;99.90;;;;;;5002706;28;20815;-72
2022/04/01 09:44:17;;;;;;;1.52;1.42;;;3.80;99.90;;;;;;4993055;28;20797;-73
2022/04/01 09:46:52;;;;;;;1.50;1.40;;;3.90;99.90;;;;;;4992405;28;20072;-71
2022/04/01 09:49:42;;;;;;;1.90;1.63;;;4.00;99.90;;;;;;4991500;28;20045;-71
2022/04/01 09:52:14;;;;;;;1.55;1.30;;;4.00;99.90;;;;;;5004839;28;20057;-71
2022/04/01 09:54:44;;;;;;;4.47;2.10;;;4.00;99.90;;;;;;5000687;28;20083;-71
2022/04/01 09:57:10;;;;;;;3.25;1.92;;;3.90;99.90;;;;;;5009552;28;20121;-71
2022/04/01 09:59:36;;;;;;;7.22;1.98;;;3.90;99.90;;;;;;4990194;28;20045;-71
2022/04/01 10:02:02;;;;;;;1.58;1.35;;;3.90;99.90;;;;;;5005404;28;20041;-71
2022/04/01 10:04:28;;;;;;;2.28;1.52;;;4.00;99.90;;;;;;5004291;28;20042;-70
2022/04/01 10:06:54;;;;;;;1.98;1.33;;;4.00;99.90;;;;;;5005522;28;20489;-70
2022/04/01 10:09:21;;;;;;;3.80;1.58;;;4.00;99.90;;;;;;4989769;28;20042;-70
2022/04/01 10:11:48;;;;;;;1.70;1.52;;;4.00;99.90;;;;;;5002149;28;20120;-71
2022/04/01 10:14:20;;;;;;;3.40;1.50;;;4.00;99.90;;;;;;4993712;28;20060;-71
2022/04/01 10:16:47;;;;;;;1.02;1.02;;;4.10;99.90;;;;;;4988688;28;20048;-72
2022/04/01 10:19:18;;;;;;;1.20;1.15;;;4.30;99.90;;;;;;4999201;28;20080;-71
2022/04/01 10:21:45;;;;;;;1.45;1.35;;;4.50;99.90;;;;;;4982769;28;20387;-71
2022/04/01 10:24:13;;;;;;;2.65;1.65;;;4.70;99.90;;;;;;5008573;28;20402;-71
2022/04/01 10:26:58;;;;;;;3.15;1.50;;;4.80;99.90;;;;;;5008778;28;20120;-72
2022/04/01 10:29:24;;;;;;;3.42;1.42;;;4.90;99.90;;;;;;5000617;28;20152;-73
2022/04/01 10:31:55;;;;;;;1.00;0.98;;;4.90;99.90;;;;;;5006647;28;20046;-72
2022/04/01 10:34:23;;;;;;;4.97;1.65;;;5.10;99.90;;;;;;5006012;28;20041;-73
2022/04/01 10:36:54;;;;;;;0.90;0.90;;;5.30;99.90;;;;;;4993500;28;20418;-73
2022/04/01 10:39:20;;;;;;;6.65;1.25;;;5.40;99.90;;;;;;4999193;28;20457;-73
2022/04/01 10:42:12;;;;;;;3.95;1.95;;;5.30;99.90;;;;;;5004302;28;20398;-73
2022/04/01 10:44:50;;;;;;;1.98;1.88;;;5.40;99.90;;;;;;5003445;28;20132;-73
2022/04/01 10:47:17;;;;;;;9.10;2.17;;;5.60;99.90;;;;;;5002581;28;20042;-73
2022/04/01 10:52:29;;;;;;;1.75;1.63;;;5.80;99.90;;;;;;5006190;28;20290;-73
2022/04/01 10:55:08;;;;;;;1.10;1.05;;;5.90;99.90;;;;;;5005433;28;20050;-73
2022/04/01 10:57:47;;;;;;;1.52;1.42;;;5.90;99.90;;;;;;5007013;28;20041;-71
2022/04/01 11:00:17;;;;;;;1.90;1.00;;;5.90;99.90;;;;;;4990603;28;20033;-72
2022/04/01 11:02:45;;;;;;;0.98;0.98;;;6.00;99.90;;;;;;5007535;28;20045;-71
2022/04/01 11:05:31;;;;;;;1.00;0.95;;;6.00;99.90;;;;;;5003878;28;20046;-70
2022/04/01 11:08:20;;;;;;;2.33;1.42;;;5.90;99.90;;;;;;4987351;28;20553;-73
2022/04/01 11:11:12;;;;;;;0.73;0.73;;;5.90;99.90;;;;;;5002355;28;20065;-72
2022/04/01 11:13:39;;;;;;;1.98;1.35;;;5.80;99.90;;;;;;5003880;28;20436;-72
2022/04/01 11:16:21;;;;;;;1.23;1.13;;;5.90;99.90;;;;;;4987578;28;20442;-72
2022/04/01 11:19:28;;;;;;;1.88;1.67;;;6.00;99.90;;;;;;5001266;28;20089;-71
2022/04/01 11:21:54;;;;;;;1.23;1.00;;;6.00;99.90;;;;;;4993926;28;20042;-71
2022/04/01 11:24:36;;;;;;;1.42;1.27;;;5.90;99.90;;;;;;4979676;28;20041;-71
2022/04/01 11:27:22;;;;;;;3.33;1.30;;;5.80;99.90;;;;;;5018426;28;20519;-71
2022/04/01 11:30:15;;;;;;;1.38;1.27;;;5.80;99.90;;;;;;4988251;28;20104;-71
2022/04/01 11:32:46;;;;;;;2.38;1.50;;;5.90;99.90;;;;;;4996214;28;20038;-71
2022/04/01 11:35:13;;;;;;;2.28;1.50;;;6.00;99.90;;;;;;4977788;28;20042;-72
2022/04/01 11:37:49;;;;;;;4.95;2.03;;;5.90;99.90;;;;;;5013655;28;20041;-72
2022/04/01 11:40:16;;;;;;;1.88;1.45;;;5.90;99.90;;;;;;4997382;28;20132;-71
2022/04/01 11:42:58;;;;;;;0.90;0.90;;;6.00;99.90;;;;;;4995780;28;20053;-72
2022/04/01 11:45:26;;;;;;;2.10;1.40;;;6.10;99.90;;;;;;5009961;28;20056;-72
2022/04/01 11:47:52;;;;;;;1.13;0.98;;;6.20;99.90;;;;;;5006192;28;20351;-72
2022/04/01 11:50:20;;;;;;;2.03;1.35;;;6.30;99.90;;;;;;4999757;28;20136;-70
2022/04/01 11:52:49;;;;;;;1.85;1.30;;;6.40;99.90;;;;;;5013071;28;20053;-70
2022/04/01 11:55:19;;;;;;;5.70;1.30;;;6.50;99.90;;;;;;4997215;28;20506;-70
2022/04/01 11:57:46;;;;;;;1.08;1.08;;;6.50;99.90;;;;;;5013176;28;20461;-72
2022/04/01 12:00:15;;;;;;;1.73;1.50;;;6.50;99.90;;;;;;5012776;28;20083;-71
2022/04/01 12:02:42;;;;;;;3.38;1.27;;;6.50;98.60;;;;;;4985414;28;20387;-71
2022/04/01 12:05:08;;;;;;;2.60;1.40;;;6.60;99.30;;;;;;4993188;28;20112;-71
2022/04/01 12:10:23;;;;;;;2.17;1.05;;;6.50;96.20;;;;;;5008918;28;20459;-71
2022/04/01 12:12:54;;;;;;;0.60;0.60;;;6.40;96.90;;;;;;4984587;28;20658;-70
2022/04/01 12:15:33;;;;;;;2.08;1.50;;;6.30;96.90;;;;;;4982664;28;20090;-70
2022/04/01 12:18:00;;;;;;;2.40;1.20;;;6.10;94.80;;;;;;4993365;28;20041;-70
2022/04/01 12:20:28;;;;;;;0.60;0.60;;;5.90;94.60;;;;;;4995898;28;20038;-71
2022/04/01 12:22:58;;;;;;;1.65;0.98;;;5.70;97.40;;;;;;4995245;28;20410;-71
2022/04/01 12:25:24;;;;;;;2.47;0.95;;;5.80;99.90;;;;;;5000992;28;20136;-71
2022/04/01 12:27:57;;;;;;;3.83;1.45;;;5.90;98.70;;;;;;5024381;28;20056;-71
2022/04/01 12:30:30;;;;;;;2.35;1.55;;;6.00;98.40;;;;;;4990259;28;20071;-71
2022/04/01 12:32:58;;;;;;;2.20;1.13;;;6.00;94.30;;;;;;5006781;28;20485;-71
2022/04/01 12:35:24;;;;;;;0.80;0.80;;;5.90;97.60;;;;;;5004505;28;20037;-71
2022/04/01 12:38:07;;;;;;;2.42;1.67;;;6.00;99.90;;;;;;4996093;28;20079;-71
2022/04/01 12:40:45;;;;;;;2.42;1.67;;;6.10;99.40;;;;;;4996344;28;20041;-71
2022/04/01 12:43:34;;;;;;;1.50;1.27;;;6.00;99.60;;;;;;5012669;28;20136;-71
2022/04/01 12:46:08;;;;;;;3.60;1.23;;;5.80;99.90;;;;;;5011984;28;20049;-72
2022/04/01 12:48:42;;;;;;;2.78;1.40;;;5.50;99.90;;;;;;5012666;28;20068;-72
2022/04/01 12:51:08;;;;;;;1.63;1.42;;;5.30;99.90;;;;;;4994965;28;20041;-71
2022/04/01 12:53:36;;;;;;;4.40;1.30;;;5.20;99.90;;;;;;4995073;28;20366;-70
2022/04/01 12:56:20;;;;;;;3.38;1.15;;;5.20;99.90;;;;;;5010922;28;20389;-71
2022/04/01 12:59:07;;;;;;;1.30;1.20;;;5.30;99.90;;;;;;4992294;28;20049;-71
2022/04/01 13:01:34;;;;;;;2.88;1.38;;;5.50;99.90;;;;;;5013606;28;20049;-71
2022/04/01 13:04:00;;;;;;;0.52;0.52;;;5.60;99.90;;;;;;4991734;28;20084;-71
2022/04/01 13:06:28;;;;;;;3.42;1.80;;;5.60;99.90;;;;;;5011255;28;20104;-70
2022/04/01 13:08:59;;;;;;;1.40;1.30;;;5.60;99.90;;;;;;5011882;28;20080;-71
2022/04/01 13:11:35;;;;;;;3.45;1.77;;;5.70;99.90;;;;;;5005597;28;20523;-71
2022/04/01 13:14:00;;;;;;;2.15;1.30;;;5.80;99.90;;;;;;4994310;28;20033;-72
2022/04/01 13:16:35;;;;;;;2.80;1.50;;;5.90;99.90;;;;;;4995950;28;20050;-71
2022/04/01 13:19:30;;;;;;;1.42;1.33;;;6.20;99.90;;;;;;5003690;28;20038;-71
2022/04/01 13:22:05;;;;;;;0.77;0.77;;;6.20;99.90;;;;;;5004910;28;20232;-72
2022/04/01 13:24:40;;;;;;;1.67;1.30;;;6.10;99.90;;;;;;5004328;28;20462;-70
2022/04/01 13:27:08;;;;;;;1.55;1.02;;;6.10;99.90;;;;;;5023483;28;20461;-71